Weather History for Thomson, GA

Change the Weather History Date:

Saturday, June 15, 2013

  Actual Average (KDBN) Record (KDBN)
Temperature  
Mean Temperature 72 °F -  
Max Temperature 84 °F 91 °F 101 °F (1963)
Min Temperature 59 °F 65 °F 54 °F (1933)
Cooling Degree Days 6    
Growing Degree Days 22 (Base 50)    
Moisture  
Dew Point 63 °F    
Average Humidity 75    
Maximum Humidity 100    
Minimum Humidity 40    
Precipitation  
Precipitation 0.00 in - - ()
Sea Level Pressure  
Sea Level Pressure 30.13 in    
Wind  
Wind Speed 1 mph (East)    
Max Wind Speed 7 mph    
Max Gust Speed -    
Visibility 9 miles    
Events      
Averages and records for this station are not official NWS values.
T = Trace of Precipitation, MM = Missing Value Source: NWS Daily Summary

Daily Weather History Graph

Daily Weather History Graph

Search for Another Location

Airport:

Trip Planner

Search our weather history database for the weather conditions in past years. The results will help you decide how hot, cold, wet, or windy it might be!

Date:

Astronomy

Jun. 15, 2013 Rise Set
Actual Time 6:19 AM EDT 8:41 PM EDT
Civil Twilight 5:50 AM EDT 9:10 PM EDT
Nautical Twilight 5:15 AM EDT 9:46 PM EDT
Astronomical Twilight 4:36 AM EDT 10:25 PM EDT
Moon 12:35 PM EDT (6/15) 12:32 AM EDT (6/15)
Length of Visible Light 15h 20m
Length of Day
14h 22m
Waxing Crescent, 39% of the Moon is Illuminated
Jun 15
Waxing Crescent
Jun 16
First Quarter
Jun 23
Full
Jun 30
Last Quarter
Jul 8
New

Hourly Weather History & Observations

Time (EDT) Temp. Heat Index Dew Point Humidity Pressure Visibility Wind Dir Wind Speed Gust Speed Precip Events Conditions
12:15 AM 67.3 °F - 67.3 °F 100% 30.07 in 10.0 mi Calm Calm - N/A   Overcast
12:35 AM 67.8 °F - 67.6 °F 99% 30.07 in 10.0 mi Calm Calm - N/A   Overcast
12:55 AM 67.5 °F - 67.5 °F 100% 30.08 in 10.0 mi Calm Calm - N/A   Overcast
1:15 AM 66.7 °F - 66.7 °F 100% 30.08 in 10.0 mi Calm Calm - N/A   Mostly Cloudy
1:35 AM 66.0 °F - 66.0 °F 100% 30.08 in 10.0 mi Calm Calm - N/A   Scattered Clouds
1:55 AM 64.9 °F - 64.9 °F 100% 30.09 in 10.0 mi Calm Calm - N/A   Clear
2:15 AM 64.6 °F - 64.6 °F 100% 30.08 in 10.0 mi Calm Calm - N/A   Clear
2:35 AM 64.0 °F - 64.0 °F 100% 30.08 in 10.0 mi Calm Calm - N/A   Clear
2:55 AM 63.3 °F - 63.3 °F 100% 30.08 in 7.0 mi Calm Calm - N/A   Clear
3:15 AM 63.0 °F - 63.0 °F 100% 30.08 in 7.0 mi Calm Calm - N/A   Clear
3:35 AM 62.6 °F - 62.6 °F 100% 30.08 in 7.0 mi Calm Calm - N/A   Clear
3:55 AM 61.9 °F - 61.9 °F 100% 30.08 in 10.0 mi Calm Calm - N/A   Clear
4:15 AM 61.9 °F - 61.9 °F 100% 30.08 in 10.0 mi Calm Calm - N/A   Clear
4:35 AM 61.7 °F - 61.7 °F 100% 30.08 in 7.0 mi Calm Calm - N/A   Clear
4:55 AM 60.4 °F - 60.4 °F 100% 30.08 in 7.0 mi Calm Calm - N/A   Clear
5:15 AM 60.3 °F - 60.3 °F 100% 30.08 in 7.0 mi Calm Calm - N/A   Clear
5:35 AM 59.9 °F - 59.9 °F 100% 30.10 in 7.0 mi Calm Calm - N/A   Clear
5:55 AM 60.1 °F - 60.1 °F 100% 30.11 in 7.0 mi Calm Calm - N/A   Clear
6:15 AM 59.4 °F - 59.4 °F 100% 30.11 in 7.0 mi Calm Calm - N/A   Clear
6:35 AM 59.4 °F - 59.4 °F 100% 30.12 in 5.0 mi Calm Calm - N/A   Clear
6:55 AM 59.2 °F - 59.2 °F 100% 30.13 in 7.0 mi Calm Calm - N/A   Clear
7:15 AM 60.1 °F - 60.1 °F 100% 30.14 in 5.0 mi Calm Calm - N/A   Clear
7:35 AM 61.9 °F - 61.9 °F 100% 30.14 in 7.0 mi Calm Calm - N/A   Clear
7:55 AM 64.4 °F - 64.4 °F 100% 30.14 in 10.0 mi Calm Calm - N/A   Clear
8:15 AM 67.6 °F - 66.9 °F 98% 30.15 in 10.0 mi Calm Calm - N/A   Clear
8:35 AM 70.9 °F - 64.9 °F 81% 30.16 in 10.0 mi Calm Calm - N/A   Clear
8:55 AM 73.0 °F - 65.7 °F 78% 30.16 in 10.0 mi ESE 3.5 mph - N/A   Clear
9:15 AM 75.4 °F - 65.3 °F 71% 30.17 in 10.0 mi Calm Calm - N/A   Clear
9:35 AM 77.2 °F - 64.2 °F 64% 30.17 in 10.0 mi Calm Calm - N/A   Clear
9:55 AM 78.1 °F - 64.0 °F 62% 30.17 in 10.0 mi Calm Calm - N/A   Clear
10:15 AM 79.0 °F - 62.8 °F 57% 30.18 in 10.0 mi Calm Calm - N/A   Clear
10:35 AM 80.4 °F 81.6 °F 62.4 °F 54% 30.18 in 10.0 mi SSE 3.5 mph - N/A   Clear
10:55 AM 80.6 °F 81.4 °F 60.6 °F 50% 30.18 in 10.0 mi East 3.5 mph - N/A   Clear
11:15 AM 81.0 °F 81.7 °F 60.6 °F 50% 30.18 in 10.0 mi East 4.6 mph - N/A   Clear
11:35 AM 82.2 °F 82.4 °F 59.4 °F 46% 30.18 in 10.0 mi ESE 4.6 mph - N/A   Scattered Clouds
11:55 AM 81.9 °F 81.7 °F 57.6 °F 43% 30.18 in 10.0 mi Calm Calm - N/A   Clear
12:15 PM 82.2 °F 82.1 °F 58.5 °F 44% 30.17 in 10.0 mi Calm Calm - N/A   Clear
12:35 PM 82.8 °F 82.2 °F 57.0 °F 41% 30.17 in 10.0 mi Calm Calm - N/A   Clear
12:55 PM 82.8 °F 82.5 °F 58.1 °F 43% 30.17 in 10.0 mi ENE 6.9 mph - N/A   Scattered Clouds
1:15 PM 83.3 °F 83.5 °F 60.4 °F 46% 30.17 in 10.0 mi East 4.6 mph - N/A   Scattered Clouds
1:35 PM 83.3 °F 83.2 °F 59.0 °F 44% 30.16 in 10.0 mi ESE 3.5 mph - N/A   Clear
1:55 PM 84.4 °F 84.0 °F 58.8 °F 42% 30.16 in 10.0 mi North 3.5 mph - N/A   Clear
2:15 PM 81.9 °F 81.8 °F 57.7 °F 44% 30.16 in 10.0 mi NE 3.5 mph - N/A   Scattered Clouds
2:35 PM 83.5 °F 83.2 °F 58.8 °F 43% 30.15 in 10.0 mi Calm Calm - N/A   Scattered Clouds
2:55 PM 84.9 °F 84.4 °F 58.6 °F 41% 30.15 in 10.0 mi ENE 3.5 mph - N/A   Scattered Clouds
3:15 PM 83.8 °F 83.3 °F 58.1 °F 41% 30.15 in 10.0 mi East 4.6 mph - N/A   Scattered Clouds
3:35 PM 84.7 °F 84.0 °F 58.1 °F 40% 30.15 in 10.0 mi Calm Calm - N/A   Scattered Clouds
3:55 PM 84.9 °F 84.4 °F 58.5 °F 41% 30.14 in 10.0 mi Calm Calm - N/A   Clear
4:15 PM 84.9 °F 85.2 °F 61.3 °F 45% 30.13 in 10.0 mi East 5.8 mph - N/A   Clear
4:35 PM 82.8 °F 83.1 °F 60.6 °F 47% 30.14 in 10.0 mi Calm Calm - N/A   Mostly Cloudy
4:55 PM 82.0 °F 83.8 °F 64.9 °F 56% 30.13 in 10.0 mi Calm Calm - N/A   Scattered Clouds
5:15 PM 84.4 °F 84.2 °F 59.5 °F 43% 30.13 in 10.0 mi Calm Calm - N/A   Scattered Clouds
5:35 PM 84.2 °F 84.2 °F 59.9 °F 44% 30.13 in 10.0 mi Calm Calm - N/A   Mostly Cloudy
5:55 PM 81.7 °F 82.9 °F 63.1 °F 53% 30.13 in 10.0 mi Calm Calm - N/A   Overcast
6:15 PM 83.5 °F 85.3 °F 65.3 °F 54% 30.13 in 10.0 mi Calm Calm - N/A   Mostly Cloudy
6:35 PM 83.3 °F 84.3 °F 63.0 °F 50% 30.13 in 10.0 mi NE 4.6 mph - N/A   Scattered Clouds
6:55 PM 82.4 °F 83.5 °F 63.1 °F 52% 30.13 in 10.0 mi NNE 4.6 mph - N/A   Clear
7:15 PM 81.3 °F 82.6 °F 63.0 °F 54% 30.13 in 10.0 mi NE 3.5 mph - N/A   Scattered Clouds
7:35 PM 80.6 °F 82.2 °F 64.2 °F 57% 30.13 in 10.0 mi Calm Calm - N/A   Clear
7:55 PM 77.4 °F - 67.8 °F 72% 30.13 in 10.0 mi Calm Calm - N/A   Clear
8:15 PM 75.9 °F - 67.8 °F 76% 30.13 in 10.0 mi Calm Calm - N/A   Clear
8:35 PM 73.8 °F - 67.3 °F 80% 30.12 in 10.0 mi Calm Calm - N/A   Clear
8:55 PM 72.5 °F - 67.6 °F 85% 30.12 in 10.0 mi Calm Calm - N/A   Clear
9:15 PM 71.1 °F - 67.8 °F 89% 30.12 in 10.0 mi Calm Calm - N/A   Clear
9:35 PM 70.0 °F - 68.0 °F 93% 30.12 in 10.0 mi Calm Calm - N/A   Clear
9:55 PM 69.3 °F - 67.8 °F 95% 30.13 in 10.0 mi Calm Calm - N/A   Clear
10:15 PM 68.5 °F - 68.0 °F 98% 30.14 in 10.0 mi Calm Calm - N/A   Clear
10:35 PM 68.0 °F - 67.6 °F 99% 30.14 in 10.0 mi Calm Calm - N/A   Clear
10:55 PM 67.8 °F - 67.5 °F 99% 30.16 in 10.0 mi SE 3.5 mph - N/A   Clear
11:15 PM 69.3 °F - 66.2 °F 90% 30.16 in 10.0 mi Calm Calm - N/A   Clear
11:35 PM 68.0 °F - 66.7 °F 96% 30.16 in 10.0 mi Calm Calm - N/A   Clear
11:55 PM 67.6 °F - 66.7 °F 97% 30.17 in 10.0 mi Calm Calm - N/A   Clear